Time;durP1;ratioP1;P1;durP2;ratioP2;P2;SDS_P1;SDS_P2;PMS_P1;PMS_P2;Temp;Humidity;BMP_temperature;BMP_pressure;BME280_temperature;BME280_humidity;BME280_pressure;Samples;Min_cycle;Max_cycle;Signal;HPM_P1;HPM_P2
2023/10/15 00:01:55;;;;;;;1.50;0.73;;;8.60;99.90;;;;;;4974845;28;20154;-64
2023/10/15 00:04:22;;;;;;;1.48;0.77;;;8.60;99.90;;;;;;4974848;28;20065;-64
2023/10/15 00:06:49;;;;;;;2.40;0.80;;;8.60;99.90;;;;;;4974521;28;20046;-64
2023/10/15 00:09:16;;;;;;;2.30;1.13;;;8.60;99.90;;;;;;4975113;28;20054;-64
2023/10/15 00:11:43;;;;;;;1.25;1.00;;;8.70;99.90;;;;;;4958915;28;20310;-65
2023/10/15 00:14:09;;;;;;;2.22;0.93;;;8.80;99.90;;;;;;4974822;28;20050;-65
2023/10/15 00:16:35;;;;;;;2.65;0.90;;;8.80;99.90;;;;;;4991402;28;20058;-65
2023/10/15 00:19:10;;;;;;;1.33;0.70;;;8.80;99.90;;;;;;4959212;28;20046;-65
2023/10/15 00:21:38;;;;;;;3.00;0.95;;;8.80;99.90;;;;;;4974835;28;20069;-65
2023/10/15 00:24:10;;;;;;;1.58;0.70;;;8.70;99.90;;;;;;4974547;28;20053;-66
2023/10/15 00:26:39;;;;;;;2.00;1.40;;;8.60;99.90;;;;;;4973401;28;20064;-65
2023/10/15 00:29:08;;;;;;;3.25;1.30;;;8.50;99.90;;;;;;4974211;28;20485;-65
2023/10/15 00:31:34;;;;;;;4.50;1.27;;;8.30;99.90;;;;;;4973974;28;20051;-65
2023/10/15 00:34:01;;;;;;;2.33;1.10;;;8.20;99.90;;;;;;4974367;28;20058;-65
2023/10/15 00:36:27;;;;;;;2.50;0.90;;;8.10;99.90;;;;;;4990548;28;20058;-65
2023/10/15 00:38:54;;;;;;;4.15;1.10;;;8.00;99.90;;;;;;4974346;28;20050;-65
2023/10/15 00:41:20;;;;;;;2.95;1.08;;;8.00;99.90;;;;;;4973902;28;20042;-64
2023/10/15 00:43:59;;;;;;;3.58;1.00;;;7.90;99.90;;;;;;4974245;28;20058;-65
2023/10/15 00:46:29;;;;;;;2.70;1.00;;;7.80;99.90;;;;;;4990882;28;20089;-64
2023/10/15 00:49:09;;;;;;;2.45;0.60;;;7.80;99.90;;;;;;4974474;28;20054;-65
2023/10/15 00:51:44;;;;;;;1.17;0.73;;;7.70;99.90;;;;;;4991994;28;20077;-64
2023/10/15 00:54:15;;;;;;;1.30;0.60;;;7.70;99.90;;;;;;4995918;28;20057;-65
2023/10/15 00:56:44;;;;;;;2.13;1.33;;;7.60;99.90;;;;;;4978106;28;20313;-64
2023/10/15 00:59:18;;;;;;;2.33;0.70;;;7.60;99.90;;;;;;4995892;28;20054;-64
2023/10/15 01:01:54;;;;;;;3.05;0.90;;;7.60;99.90;;;;;;4978836;28;20081;-64
2023/10/15 01:04:26;;;;;;;1.98;0.90;;;7.50;99.90;;;;;;4978363;28;20058;-65
2023/10/15 01:06:59;;;;;;;3.00;1.02;;;7.60;99.90;;;;;;4995287;28;20050;-64
2023/10/15 01:09:29;;;;;;;3.03;0.80;;;7.40;99.90;;;;;;4995625;28;20042;-65
2023/10/15 01:11:58;;;;;;;1.92;0.80;;;7.40;99.90;;;;;;4978193;28;20498;-65
2023/10/15 01:14:36;;;;;;;1.45;0.95;;;7.40;99.90;;;;;;4978481;28;20101;-65
2023/10/15 01:17:02;;;;;;;2.10;0.90;;;7.40;99.90;;;;;;4961539;28;20050;-65
2023/10/15 01:19:33;;;;;;;2.40;0.75;;;7.40;99.90;;;;;;4995459;28;20054;-65
2023/10/15 01:22:04;;;;;;;4.10;1.10;;;7.50;99.90;;;;;;4978472;28;20058;-65
2023/10/15 01:24:38;;;;;;;2.00;1.00;;;7.50;99.90;;;;;;4961803;28;20101;-65
2023/10/15 01:29:34;;;;;;;2.90;1.25;;;7.50;99.90;;;;;;4978402;28;20355;-65
2023/10/15 01:32:10;;;;;;;1.90;0.90;;;7.50;99.90;;;;;;4995125;28;20133;-65
2023/10/15 01:34:38;;;;;;;3.10;0.85;;;7.50;99.90;;;;;;4977663;28;20113;-65
2023/10/15 01:37:13;;;;;;;1.85;0.77;;;7.60;99.90;;;;;;4976931;28;20068;-65
2023/10/15 01:39:39;;;;;;;3.58;1.27;;;7.50;99.90;;;;;;4977945;28;20058;-65
2023/10/15 01:42:24;;;;;;;1.48;1.00;;;7.40;99.90;;;;;;4977444;28;20474;-65
2023/10/15 01:44:52;;;;;;;3.22;0.80;;;7.40;99.90;;;;;;4977248;28;20042;-65
2023/10/15 01:47:19;;;;;;;4.07;1.10;;;7.40;99.90;;;;;;4976936;28;20054;-65
2023/10/15 01:49:46;;;;;;;2.83;0.90;;;7.50;99.90;;;;;;4977622;28;20046;-65
2023/10/15 01:52:13;;;;;;;2.15;0.88;;;7.60;99.90;;;;;;4977469;28;20058;-65
2023/10/15 01:54:45;;;;;;;2.33;0.75;;;7.60;99.90;;;;;;4977211;28;20058;-65
2023/10/15 01:57:15;;;;;;;3.70;1.20;;;7.70;99.90;;;;;;4977099;28;20058;-64
2023/10/15 01:59:47;;;;;;;2.03;0.80;;;7.70;99.90;;;;;;4994571;28;20047;-65
2023/10/15 02:02:17;;;;;;;3.35;1.10;;;7.70;99.90;;;;;;4966359;28;20047;-65
2023/10/15 02:04:44;;;;;;;3.13;0.90;;;7.70;99.90;;;;;;4936842;29;20066;-65
2023/10/15 02:07:19;;;;;;;4.03;0.95;;;7.70;99.90;;;;;;4969396;28;20058;-64
2023/10/15 02:09:46;;;;;;;3.30;0.95;;;7.70;99.90;;;;;;4977019;28;20483;-64
2023/10/15 02:12:20;;;;;;;3.35;0.98;;;7.70;99.90;;;;;;4993953;28;20494;-65
2023/10/15 02:14:51;;;;;;;2.13;0.90;;;7.70;99.90;;;;;;4976144;28;20050;-65
2023/10/15 02:17:24;;;;;;;3.05;1.00;;;7.70;99.90;;;;;;4976174;28;20137;-65
2023/10/15 02:19:55;;;;;;;1.88;0.70;;;7.70;99.90;;;;;;4994087;28;20054;-65
2023/10/15 02:22:21;;;;;;;2.95;1.33;;;7.70;99.90;;;;;;4976498;28;20462;-65
2023/10/15 02:24:47;;;;;;;4.40;1.42;;;7.50;99.90;;;;;;4976182;28;20054;-65
2023/10/15 02:27:18;;;;;;;3.45;1.45;;;7.40;99.90;;;;;;4976359;28;20065;-65
2023/10/15 02:29:50;;;;;;;1.73;0.90;;;7.40;99.90;;;;;;4976979;28;20058;-64
2023/10/15 02:32:21;;;;;;;3.05;1.38;;;7.50;99.90;;;;;;4992804;28;20046;-65
2023/10/15 02:34:51;;;;;;;5.28;1.02;;;7.40;99.90;;;;;;4976179;28;20064;-65
2023/10/15 02:37:19;;;;;;;2.33;1.00;;;7.40;99.90;;;;;;4976066;28;20065;-65
2023/10/15 02:39:51;;;;;;;1.73;1.08;;;7.30;99.90;;;;;;4976210;28;20461;-65
2023/10/15 02:42:19;;;;;;;3.22;1.48;;;7.30;99.90;;;;;;4992310;28;20058;-65
2023/10/15 02:44:52;;;;;;;2.60;0.90;;;7.20;99.90;;;;;;4992820;28;20058;-65
2023/10/15 02:50:03;;;;;;;2.35;1.00;;;7.30;99.90;;;;;;4976459;28;20050;-65
2023/10/15 02:52:43;;;;;;;5.15;1.20;;;7.20;99.90;;;;;;4976109;28;20046;-65
2023/10/15 02:55:14;;;;;;;3.22;1.00;;;7.10;99.90;;;;;;4976025;28;20097;-64
2023/10/15 02:57:42;;;;;;;3.58;1.27;;;7.10;99.90;;;;;;4975936;28;20162;-65
2023/10/15 03:00:18;;;;;;;6.20;1.25;;;7.20;99.90;;;;;;4976101;28;20072;-65
2023/10/15 03:02:45;;;;;;;4.72;2.55;;;7.10;99.90;;;;;;4975980;28;20490;-64
2023/10/15 03:05:15;;;;;;;2.53;1.23;;;7.10;99.90;;;;;;4992369;28;20054;-64
2023/10/15 03:07:43;;;;;;;6.18;1.42;;;7.00;99.90;;;;;;4975600;28;20436;-65
2023/10/15 03:10:13;;;;;;;3.67;0.98;;;7.10;99.90;;;;;;4992783;28;20054;-65
2023/10/15 03:12:43;;;;;;;1.33;0.75;;;7.10;99.90;;;;;;4975499;28;20042;-64
2023/10/15 03:15:14;;;;;;;5.38;1.10;;;7.10;99.90;;;;;;4958930;28;20097;-64
2023/10/15 03:17:42;;;;;;;3.67;0.90;;;7.10;99.90;;;;;;4975504;28;20109;-65
2023/10/15 03:20:12;;;;;;;3.17;1.00;;;7.10;99.90;;;;;;4975730;28;20120;-64
2023/10/15 03:22:39;;;;;;;5.95;1.42;;;7.20;99.90;;;;;;4975799;28;20058;-65
2023/10/15 03:25:06;;;;;;;3.40;1.10;;;7.40;99.90;;;;;;4975016;28;20042;-65
2023/10/15 03:27:32;;;;;;;3.95;1.40;;;7.40;99.90;;;;;;4975108;28;20061;-65
2023/10/15 03:29:58;;;;;;;6.20;1.30;;;7.60;99.90;;;;;;4975464;28;20046;-65
2023/10/15 03:32:40;;;;;;;2.90;1.00;;;7.70;99.90;;;;;;4974829;28;20408;-65
2023/10/15 03:35:32;;;;;;;3.20;1.02;;;7.70;99.90;;;;;;4974880;28;20061;-64
2023/10/15 03:38:04;;;;;;;5.25;1.63;;;7.80;99.90;;;;;;4992353;28;20050;-64
2023/10/15 03:40:32;;;;;;;3.28;1.00;;;7.70;99.90;;;;;;4959230;28;20110;-64
2023/10/15 03:43:15;;;;;;;2.45;0.88;;;7.60;99.90;;;;;;4992105;28;20256;-64
2023/10/15 03:45:50;;;;;;;3.47;0.85;;;7.60;99.90;;;;;;4974143;28;20141;-64
2023/10/15 03:48:30;;;;;;;4.30;1.13;;;7.50;99.90;;;;;;4991634;28;20478;-64
2023/10/15 03:50:58;;;;;;;4.28;1.00;;;7.60;99.90;;;;;;4974885;28;20061;-64
2023/10/15 03:53:28;;;;;;;1.38;0.75;;;7.40;99.90;;;;;;4992102;28;20116;-64
2023/10/15 03:55:58;;;;;;;4.18;1.70;;;7.40;99.90;;;;;;4974101;28;20058;-64
2023/10/15 03:58:25;;;;;;;4.20;1.35;;;7.30;99.90;;;;;;4959039;28;20392;-64
2023/10/15 04:01:11;;;;;;;3.80;0.98;;;7.30;99.90;;;;;;4974967;28;20057;-64
2023/10/15 04:03:42;;;;;;;3.88;1.00;;;7.20;99.90;;;;;;4991710;28;20124;-64
2023/10/15 04:06:13;;;;;;;4.38;0.80;;;7.20;99.90;;;;;;4991582;28;20447;-64
2023/10/15 04:08:39;;;;;;;4.38;1.20;;;7.20;99.90;;;;;;4992296;28;20435;-65
2023/10/15 04:11:08;;;;;;;3.97;1.15;;;7.10;99.90;;;;;;4991985;28;20069;-64
2023/10/15 04:13:35;;;;;;;2.33;1.00;;;7.00;99.90;;;;;;4958876;28;20046;-64
2023/10/15 04:16:01;;;;;;;5.45;1.52;;;7.10;99.90;;;;;;4974165;28;20058;-64
2023/10/15 04:18:29;;;;;;;3.17;1.67;;;7.00;99.90;;;;;;4974609;28;20428;-64
2023/10/15 04:20:56;;;;;;;2.92;0.95;;;7.10;99.90;;;;;;4974458;28;20081;-65
2023/10/15 04:23:31;;;;;;;3.95;1.40;;;7.10;99.90;;;;;;4975273;28;20395;-64
2023/10/15 04:26:11;;;;;;;4.43;1.27;;;7.00;99.90;;;;;;4974208;28;20423;-64
2023/10/15 04:28:40;;;;;;;2.90;0.82;;;7.10;99.90;;;;;;4978441;28;20046;-64
2023/10/15 04:31:21;;;;;;;3.75;1.10;;;7.10;99.90;;;;;;4978888;28;20065;-65
2023/10/15 04:33:51;;;;;;;2.10;1.10;;;7.10;99.90;;;;;;4978967;28;20054;-64
2023/10/15 04:36:17;;;;;;;4.22;1.77;;;7.10;99.90;;;;;;4977818;28;20058;-65
2023/10/15 04:38:43;;;;;;;3.15;1.10;;;7.20;99.90;;;;;;4978846;28;20050;-64
2023/10/15 04:41:21;;;;;;;2.35;0.98;;;7.20;99.90;;;;;;4962342;28;20467;-64
2023/10/15 04:43:47;;;;;;;3.17;1.48;;;7.30;99.90;;;;;;4996035;28;20344;-64
2023/10/15 04:46:25;;;;;;;3.08;0.98;;;7.30;99.90;;;;;;4978078;28;20046;-64
2023/10/15 04:48:52;;;;;;;3.83;1.10;;;7.40;99.90;;;;;;4978170;28;20451;-64
2023/10/15 04:51:29;;;;;;;3.72;1.30;;;7.40;99.90;;;;;;4961900;28;20058;-64
2023/10/15 04:53:55;;;;;;;3.15;1.70;;;7.40;99.90;;;;;;4978213;28;20158;-64
2023/10/15 04:56:22;;;;;;;3.75;1.20;;;7.40;99.90;;;;;;4977221;28;20073;-64
2023/10/15 04:58:48;;;;;;;6.18;1.10;;;7.50;99.90;;;;;;4978071;28;20054;-64
2023/10/15 05:01:14;;;;;;;5.82;1.25;;;7.50;99.90;;;;;;4978332;28;20050;-64
2023/10/15 05:03:45;;;;;;;4.05;1.10;;;7.50;99.90;;;;;;4985317;28;20053;-64
2023/10/15 05:06:12;;;;;;;4.03;1.25;;;7.40;99.90;;;;;;4989126;28;20177;-64
2023/10/15 05:08:40;;;;;;;2.50;1.10;;;7.40;99.90;;;;;;4969378;28;20050;-64
2023/10/15 05:11:08;;;;;;;3.80;1.10;;;7.50;99.90;;;;;;4977768;28;20046;-64
2023/10/15 05:13:34;;;;;;;2.58;1.20;;;7.40;99.90;;;;;;4959089;28;20050;-64
2023/10/15 05:16:01;;;;;;;7.60;1.20;;;7.40;99.90;;;;;;4963811;28;20057;-64
2023/10/15 05:18:29;;;;;;;3.97;0.93;;;7.40;99.90;;;;;;4978504;28;20054;-64
2023/10/15 05:20:56;;;;;;;2.53;1.02;;;7.30;99.90;;;;;;4995819;28;20116;-64
2023/10/15 05:23:22;;;;;;;2.50;0.98;;;7.40;99.90;;;;;;4995875;28;20164;-64
2023/10/15 05:25:53;;;;;;;3.03;0.88;;;7.30;99.90;;;;;;4977257;28;20038;-63
2023/10/15 05:28:19;;;;;;;3.17;1.33;;;7.20;99.90;;;;;;4995321;28;20074;-64
2023/10/15 05:30:45;;;;;;;4.43;1.00;;;7.20;99.90;;;;;;4977653;28;20455;-64
2023/10/15 05:33:12;;;;;;;5.82;2.10;;;7.10;99.90;;;;;;4978360;28;20116;-64
2023/10/15 05:35:43;;;;;;;5.68;1.27;;;7.10;99.90;;;;;;4977353;28;20055;-64
2023/10/15 05:38:09;;;;;;;4.20;1.00;;;7.00;99.90;;;;;;4994915;28;20061;-64
2023/10/15 05:40:37;;;;;;;4.88;1.20;;;7.00;99.90;;;;;;4977948;28;20065;-64
2023/10/15 05:43:04;;;;;;;2.42;1.00;;;6.90;99.90;;;;;;4977707;28;20101;-64
2023/10/15 05:45:31;;;;;;;3.47;0.90;;;6.90;99.90;;;;;;4977409;28;20130;-64
2023/10/15 05:47:57;;;;;;;2.15;0.93;;;6.90;99.90;;;;;;4961617;28;20368;-64
2023/10/15 05:50:23;;;;;;;2.67;0.95;;;6.90;99.90;;;;;;4977729;28;20051;-64
2023/10/15 05:52:50;;;;;;;1.63;0.75;;;6.90;99.90;;;;;;4977618;28;20108;-67
2023/10/15 05:55:20;;;;;;;5.45;1.00;;;7.00;99.90;;;;;;4976815;28;20054;-64
2023/10/15 05:57:47;;;;;;;1.73;1.40;;;6.90;99.90;;;;;;4977130;28;20058;-64
2023/10/15 06:00:26;;;;;;;2.05;0.80;;;6.90;99.90;;;;;;4994773;28;20073;-65
2023/10/15 06:02:56;;;;;;;2.42;0.98;;;6.90;99.90;;;;;;4977546;28;20066;-64
2023/10/15 06:05:22;;;;;;;2.67;1.05;;;7.00;99.90;;;;;;4949634;28;20054;-64
2023/10/15 06:07:49;;;;;;;3.33;0.90;;;7.00;99.90;;;;;;4950724;28;20480;-64
2023/10/15 06:10:16;;;;;;;2.30;0.60;;;6.90;99.90;;;;;;4946593;28;20043;-65
2023/10/15 06:12:43;;;;;;;1.40;0.98;;;6.90;99.90;;;;;;4964268;28;20044;-65
2023/10/15 06:15:11;;;;;;;3.08;0.90;;;7.00;99.90;;;;;;4948342;28;20101;-64
2023/10/15 06:17:38;;;;;;;2.58;1.60;;;7.00;99.90;;;;;;4948592;28;20065;-65
2023/10/15 06:20:13;;;;;;;3.03;0.90;;;7.00;99.90;;;;;;4948404;28;20058;-64
2023/10/15 06:22:48;;;;;;;1.85;1.20;;;7.00;99.90;;;;;;4948841;28;20047;-64
2023/10/15 06:25:18;;;;;;;3.08;1.15;;;7.00;99.90;;;;;;4942804;29;20113;-64
2023/10/15 06:27:46;;;;;;;2.72;0.90;;;6.90;99.90;;;;;;4992280;28;20061;-64
2023/10/15 06:30:19;;;;;;;4.28;0.80;;;6.90;99.90;;;;;;4978133;28;20404;-64
2023/10/15 06:32:47;;;;;;;1.02;0.65;;;7.00;99.90;;;;;;4964484;28;20043;-64
2023/10/15 06:35:18;;;;;;;2.85;0.85;;;7.00;99.90;;;;;;4962030;28;20046;-64
2023/10/15 06:37:49;;;;;;;2.28;0.90;;;7.00;99.90;;;;;;4953478;28;20047;-65
2023/10/15 06:40:16;;;;;;;1.60;0.63;;;7.00;99.90;;;;;;4948145;28;20047;-64
2023/10/15 06:42:44;;;;;;;2.10;0.70;;;7.10;99.90;;;;;;4963160;28;20047;-64
2023/10/15 06:45:10;;;;;;;2.65;0.75;;;7.00;99.90;;;;;;4947415;29;20043;-65
2023/10/15 06:47:38;;;;;;;3.13;0.80;;;7.00;99.90;;;;;;4990054;28;20069;-65
2023/10/15 06:50:08;;;;;;;1.45;0.98;;;7.00;99.90;;;;;;4976260;28;20391;-65
2023/10/15 06:52:38;;;;;;;1.65;0.63;;;7.10;99.90;;;;;;4977018;28;20363;-65
2023/10/15 06:55:05;;;;;;;1.70;0.60;;;7.00;99.90;;;;;;4946734;28;20055;-64
2023/10/15 06:57:32;;;;;;;1.95;0.60;;;7.10;99.90;;;;;;4950968;28;20054;-65
2023/10/15 06:59:59;;;;;;;1.42;0.70;;;7.10;99.90;;;;;;4960794;28;20051;-65
2023/10/15 07:02:28;;;;;;;1.73;0.82;;;7.00;99.90;;;;;;4962506;28;20066;-64
2023/10/15 07:05:00;;;;;;;2.25;0.90;;;7.00;99.90;;;;;;4937232;29;20144;-64
2023/10/15 07:07:27;;;;;;;;;;;7.00;99.90;;;;;;4986574;28;20371;-64
2023/10/15 07:09:53;;;;;;;4.75;1.30;;;7.00;99.90;;;;;;4993040;28;20330;-64
2023/10/15 07:12:20;;;;;;;2.55;0.65;;;7.00;99.90;;;;;;4951720;28;20055;-64
2023/10/15 07:14:47;;;;;;;2.55;0.70;;;7.10;99.90;;;;;;4952577;28;20061;-64
2023/10/15 07:17:14;;;;;;;1.60;0.75;;;7.20;99.90;;;;;;4949415;28;20054;-65
2023/10/15 07:19:41;;;;;;;3.20;0.80;;;7.30;99.90;;;;;;4961567;28;20051;-65
2023/10/15 07:22:07;;;;;;;3.70;1.02;;;7.30;99.90;;;;;;4956651;28;20051;-64
2023/10/15 07:24:33;;;;;;;2.97;0.68;;;7.40;99.90;;;;;;4953725;28;20066;-65
2023/10/15 07:27:01;;;;;;;1.48;0.73;;;7.50;99.90;;;;;;4946797;28;20061;-64
2023/10/15 07:29:30;;;;;;;2.10;1.00;;;7.60;99.90;;;;;;4942226;28;20400;-64
2023/10/15 07:31:56;;;;;;;2.35;0.80;;;7.70;99.90;;;;;;4956102;28;20071;-64
2023/10/15 07:34:23;;;;;;;3.92;1.10;;;7.60;99.90;;;;;;4961630;28;20088;-63
2023/10/15 07:36:56;;;;;;;2.65;1.42;;;7.50;99.90;;;;;;4965594;28;20371;-64
2023/10/15 07:39:23;;;;;;;2.58;0.65;;;7.60;99.90;;;;;;4943922;28;20144;-64
2023/10/15 07:41:49;;;;;;;2.25;0.60;;;7.60;99.90;;;;;;4947425;28;20086;-63
2023/10/15 07:44:16;;;;;;;2.58;1.02;;;7.70;99.90;;;;;;4962841;28;20047;-64
2023/10/15 07:46:42;;;;;;;1.70;0.70;;;7.70;99.90;;;;;;4964427;28;20058;-64
2023/10/15 07:49:12;;;;;;;2.78;1.17;;;7.90;99.90;;;;;;4961916;28;20047;-64
2023/10/15 07:51:39;;;;;;;3.00;0.90;;;7.90;99.90;;;;;;4961739;28;20054;-64
2023/10/15 07:54:06;;;;;;;3.53;1.30;;;8.00;99.90;;;;;;4954602;28;20118;-65
2023/10/15 07:56:34;;;;;;;3.85;1.90;;;8.10;99.90;;;;;;4963030;28;20431;-64
2023/10/15 07:59:04;;;;;;;2.65;0.85;;;8.10;99.90;;;;;;4962374;28;20063;-64
2023/10/15 08:01:31;;;;;;;3.38;0.93;;;8.30;99.90;;;;;;4948460;28;20047;-64
2023/10/15 08:04:01;;;;;;;3.80;1.20;;;8.50;99.90;;;;;;4952865;29;20059;-63
2023/10/15 08:06:29;;;;;;;4.00;1.02;;;8.60;99.90;;;;;;4951010;28;20427;-63
2023/10/15 08:08:55;;;;;;;1.33;1.00;;;8.80;99.90;;;;;;4991725;28;20375;-64
2023/10/15 08:11:22;;;;;;;4.47;0.98;;;9.00;99.90;;;;;;4958289;28;20145;-64
2023/10/15 08:13:48;;;;;;;3.85;1.00;;;9.10;99.90;;;;;;4992249;28;20482;-63
2023/10/15 08:16:18;;;;;;;4.90;1.15;;;9.10;99.90;;;;;;4991389;28;20367;-64
2023/10/15 08:18:45;;;;;;;4.53;1.23;;;9.10;99.90;;;;;;4992091;28;20054;-64
2023/10/15 08:21:12;;;;;;;4.30;0.90;;;8.90;99.90;;;;;;4975303;28;20057;-64
2023/10/15 08:23:38;;;;;;;4.03;1.13;;;8.80;99.90;;;;;;4972455;28;20066;-64
2023/10/15 08:26:05;;;;;;;3.97;1.10;;;8.70;99.90;;;;;;4975861;28;20058;-64
2023/10/15 08:28:32;;;;;;;3.42;0.95;;;8.70;99.90;;;;;;4991905;28;20108;-64
2023/10/15 08:30:59;;;;;;;2.45;0.90;;;8.70;99.90;;;;;;4974463;28;20050;-63
2023/10/15 08:33:26;;;;;;;4.03;1.65;;;8.70;99.90;;;;;;4990384;28;20050;-63
2023/10/15 08:35:52;;;;;;;1.95;0.90;;;8.80;99.90;;;;;;4991635;28;20046;-63
2023/10/15 08:38:18;;;;;;;3.67;0.85;;;8.80;99.90;;;;;;4991882;28;20136;-64
2023/10/15 08:40:45;;;;;;;2.97;0.95;;;8.90;99.90;;;;;;4991636;28;20057;-64
2023/10/15 08:43:18;;;;;;;2.70;1.30;;;8.90;99.90;;;;;;4991786;28;20427;-64
2023/10/15 08:45:45;;;;;;;3.38;1.00;;;9.10;99.90;;;;;;4974077;28;20382;-64
2023/10/15 08:48:12;;;;;;;4.20;1.02;;;9.10;99.90;;;;;;4974780;28;20054;-64
2023/10/15 08:50:40;;;;;;;2.50;0.98;;;9.20;99.90;;;;;;4992295;28;20057;-64
2023/10/15 08:53:07;;;;;;;1.77;0.73;;;9.20;99.90;;;;;;4974765;28;20054;-64
2023/10/15 08:55:36;;;;;;;1.60;0.80;;;9.30;99.90;;;;;;4991293;28;20055;-64
2023/10/15 08:58:06;;;;;;;1.45;0.52;;;9.40;99.90;;;;;;4974315;28;20054;-63
2023/10/15 09:00:33;;;;;;;1.95;1.10;;;9.50;99.90;;;;;;4991360;28;20395;-64
2023/10/15 09:03:00;;;;;;;1.48;0.70;;;9.70;99.90;;;;;;4974184;28;20128;-63
2023/10/15 09:05:30;;;;;;;2.17;0.80;;;9.90;99.90;;;;;;4990679;28;20518;-64
2023/10/15 09:08:04;;;;;;;1.80;0.60;;;9.90;99.90;;;;;;4991203;28;20062;-64
2023/10/15 09:10:30;;;;;;;3.25;1.20;;;9.90;99.90;;;;;;4991099;28;20505;-64
2023/10/15 09:12:56;;;;;;;2.38;0.90;;;9.80;99.90;;;;;;4974435;28;20062;-64
2023/10/15 09:15:28;;;;;;;1.48;0.60;;;9.60;99.90;;;;;;4994596;28;20085;-65
2023/10/15 09:17:59;;;;;;;2.00;0.82;;;9.50;99.90;;;;;;4977670;28;20062;-64
2023/10/15 09:20:27;;;;;;;3.10;1.05;;;9.30;99.90;;;;;;4995065;28;20076;-64
2023/10/15 09:22:57;;;;;;;2.40;1.20;;;9.10;99.90;;;;;;4961567;28;20061;-63
2023/10/15 09:25:29;;;;;;;3.63;0.90;;;9.00;99.90;;;;;;4977022;28;20047;-64
2023/10/15 09:27:56;;;;;;;;;;;8.80;99.90;;;;;;4977692;28;20113;-63
2023/10/15 09:30:23;;;;;;;3.05;1.05;;;8.70;99.90;;;;;;4994891;28;19926;-63
2023/10/15 09:32:50;;;;;;;2.65;0.98;;;8.90;99.90;;;;;;4971166;28;20061;-63
2023/10/15 09:35:17;;;;;;;2.25;1.00;;;8.90;99.90;;;;;;4956100;29;20075;-64
2023/10/15 09:37:46;;;;;;;3.13;0.95;;;9.00;99.90;;;;;;4972967;28;20466;-63
2023/10/15 09:40:19;;;;;;;3.67;1.15;;;9.20;99.90;;;;;;4995605;28;20050;-63
2023/10/15 09:42:49;;;;;;;3.35;1.45;;;9.40;99.90;;;;;;4978244;28;20068;-63
2023/10/15 09:45:19;;;;;;;4.45;1.38;;;9.60;99.90;;;;;;4994820;28;20387;-64
2023/10/15 09:47:57;;;;;;;6.38;2.25;;;9.70;99.90;;;;;;4994991;28;20050;-64
2023/10/15 09:50:27;;;;;;;3.30;1.17;;;9.80;99.90;;;;;;4939803;29;20051;-64
2023/10/15 09:52:57;;;;;;;3.78;1.15;;;9.80;99.90;;;;;;4956562;29;20066;-64
2023/10/15 09:55:28;;;;;;;2.40;0.90;;;9.90;99.90;;;;;;4938495;29;20058;-64
2023/10/15 09:57:56;;;;;;;4.95;1.35;;;9.90;99.90;;;;;;4992522;28;20046;-63
2023/10/15 10:03:30;;;;;;;5.82;1.23;;;10.20;99.90;;;;;;4975818;28;20046;-64
2023/10/15 10:06:11;;;;;;;3.50;1.20;;;10.20;99.90;;;;;;4936829;28;20062;-63
2023/10/15 10:09:16;;;;;;;4.00;1.33;;;10.30;99.90;;;;;;4974722;28;20424;-64
2023/10/15 10:12:01;;;;;;;4.68;1.63;;;10.30;99.90;;;;;;4933189;29;20540;-64
2023/10/15 10:14:33;;;;;;;6.50;1.73;;;10.40;99.90;;;;;;4936391;29;20043;-65
2023/10/15 10:17:01;;;;;;;5.20;1.30;;;10.50;99.90;;;;;;4942906;28;20054;-64
2023/10/15 10:19:27;;;;;;;4.18;1.20;;;10.50;99.90;;;;;;4943387;29;20055;-63
2023/10/15 10:21:55;;;;;;;5.03;1.60;;;10.50;99.90;;;;;;4946469;28;20554;-65
2023/10/15 10:24:23;;;;;;;3.53;1.63;;;10.50;99.90;;;;;;4935980;29;20047;-64
2023/10/15 10:26:54;;;;;;;2.67;1.10;;;10.70;99.90;;;;;;4926791;28;20051;-64
2023/10/15 10:29:25;;;;;;;5.07;1.45;;;10.60;99.90;;;;;;4972085;28;20054;-65
2023/10/15 10:31:55;;;;;;;4.55;1.38;;;10.70;99.90;;;;;;4972639;28;20408;-65
2023/10/15 10:34:29;;;;;;;4.25;1.30;;;10.80;99.90;;;;;;4955517;28;20062;-64
2023/10/15 10:36:56;;;;;;;7.18;1.95;;;10.90;99.90;;;;;;4963458;28;20703;-64
2023/10/15 10:39:22;;;;;;;6.60;1.65;;;10.80;99.90;;;;;;4953805;29;20058;-65
2023/10/15 10:41:59;;;;;;;4.05;1.40;;;10.90;99.90;;;;;;4936217;29;20063;-64
2023/10/15 10:44:26;;;;;;;4.65;1.60;;;10.90;99.90;;;;;;4952501;29;20071;-64
2023/10/15 10:46:53;;;;;;;5.00;1.95;;;11.00;99.90;;;;;;4963966;28;20053;-64
2023/10/15 10:49:37;;;;;;;3.33;1.60;;;11.00;99.90;;;;;;4974484;28;20133;-64
2023/10/15 10:52:14;;;;;;;6.95;1.25;;;11.10;99.90;;;;;;4957717;28;20069;-64
2023/10/15 10:54:41;;;;;;;3.67;1.60;;;11.00;99.90;;;;;;4957053;28;20043;-65
2023/10/15 10:57:08;;;;;;;6.68;1.42;;;11.10;99.90;;;;;;4961249;28;20149;-64
2023/10/15 10:59:43;;;;;;;6.15;1.45;;;11.30;99.90;;;;;;4955604;29;20059;-65
2023/10/15 11:02:11;;;;;;;6.10;1.38;;;11.40;99.90;;;;;;4938146;29;20111;-64
2023/10/15 11:04:40;;;;;;;4.35;1.20;;;11.50;99.90;;;;;;4964060;28;20080;-64
2023/10/15 11:07:07;;;;;;;3.90;1.02;;;11.70;99.90;;;;;;4952329;28;20050;-64
2023/10/15 11:09:37;;;;;;;3.38;1.17;;;11.90;99.90;;;;;;4994009;28;20050;-64
2023/10/15 11:12:09;;;;;;;5.90;1.55;;;12.00;99.90;;;;;;4964509;28;20054;-64
2023/10/15 11:14:35;;;;;;;;;;;12.20;99.90;;;;;;4968454;28;20476;-65
2023/10/15 11:17:02;;;;;;;7.40;1.67;;;12.10;99.90;;;;;;4958114;28;19937;-64
2023/10/15 11:19:29;;;;;;;8.00;2.58;;;11.80;99.90;;;;;;4966117;28;20059;-64
2023/10/15 11:21:56;;;;;;;5.57;1.60;;;11.30;99.90;;;;;;4977511;28;20088;-64
2023/10/15 11:24:24;;;;;;;6.35;1.70;;;9.80;99.90;;;;;;4993264;28;20467;-64
2023/10/15 11:26:54;;;;;;;5.10;1.60;;;9.20;99.90;;;;;;4974148;28;20054;-64
2023/10/15 11:29:24;;;;;;;4.72;1.38;;;8.70;99.90;;;;;;4974207;28;20331;-63
2023/10/15 11:31:56;;;;;;;3.45;1.58;;;8.40;99.90;;;;;;4956929;28;20057;-63
2023/10/15 11:34:24;;;;;;;5.28;1.23;;;8.50;99.90;;;;;;4955764;28;20061;-63
2023/10/15 11:36:55;;;;;;;5.57;2.90;;;8.50;99.90;;;;;;4981364;28;20467;-63
2023/10/15 11:39:25;;;;;;;4.03;1.15;;;8.50;99.90;;;;;;4993448;28;20120;-63
2023/10/15 11:41:52;;;;;;;3.58;1.17;;;8.60;99.90;;;;;;4959121;28;20077;-63
2023/10/15 11:44:26;;;;;;;2.17;1.15;;;8.70;99.90;;;;;;4971507;28;20141;-63
2023/10/15 11:46:56;;;;;;;5.28;1.73;;;8.70;99.90;;;;;;4982591;28;20046;-64
2023/10/15 11:49:24;;;;;;;4.43;1.00;;;8.90;99.90;;;;;;4976048;28;20050;-64
2023/10/15 11:51:55;;;;;;;2.38;0.93;;;9.00;99.90;;;;;;4975899;28;20055;-64
2023/10/15 11:54:29;;;;;;;6.82;1.50;;;9.20;99.90;;;;;;4974634;28;20054;-64
2023/10/15 11:57:00;;;;;;;3.95;1.10;;;9.40;99.90;;;;;;4973658;28;20050;-64
2023/10/15 11:59:29;;;;;;;4.88;1.10;;;9.50;99.90;;;;;;4946943;28;20051;-63
2023/10/15 12:01:55;;;;;;;5.90;1.40;;;9.60;99.90;;;;;;4964705;28;20057;-63
2023/10/15 12:04:23;;;;;;;5.47;1.42;;;9.90;99.90;;;;;;4940514;29;20063;-65
2023/10/15 12:06:49;;;;;;;5.93;1.50;;;10.00;99.90;;;;;;4971467;28;20046;-64
2023/10/15 12:09:24;;;;;;;7.22;1.77;;;10.00;99.90;;;;;;4993182;28;20046;-64
2023/10/15 12:11:51;;;;;;;6.32;1.55;;;10.20;99.90;;;;;;4969224;28;20408;-65
2023/10/15 12:14:18;;;;;;;5.63;1.10;;;10.20;99.90;;;;;;4973493;28;20047;-63
2023/10/15 12:16:45;;;;;;;3.83;1.15;;;10.30;99.90;;;;;;4970185;28;20085;-64
2023/10/15 12:19:11;;;;;;;3.97;1.17;;;10.40;99.90;;;;;;4949806;28;20058;-63
2023/10/15 12:21:39;;;;;;;3.67;1.00;;;10.50;99.90;;;;;;4956508;28;20116;-64
2023/10/15 12:24:11;;;;;;;5.57;1.17;;;10.50;99.90;;;;;;4972771;28;20456;-65
2023/10/15 12:26:37;;;;;;;2.58;1.10;;;10.50;99.90;;;;;;4959620;28;20474;-64
2023/10/15 12:29:05;;;;;;;3.60;1.08;;;10.60;99.90;;;;;;4975661;28;20417;-64
2023/10/15 12:31:32;;;;;;;2.17;0.82;;;10.80;99.90;;;;;;4975683;28;20050;-65
2023/10/15 12:34:00;;;;;;;3.40;1.58;;;10.70;99.90;;;;;;4992665;28;20077;-64
2023/10/15 12:36:28;;;;;;;3.67;1.45;;;10.80;99.90;;;;;;4959326;28;20434;-64
2023/10/15 12:38:56;;;;;;;2.42;0.98;;;10.80;99.90;;;;;;4993049;28;20050;-64
2023/10/15 12:41:25;;;;;;;3.03;1.20;;;10.90;99.90;;;;;;4975284;28;20113;-65
2023/10/15 12:43:58;;;;;;;3.90;1.15;;;10.90;99.90;;;;;;4963276;28;20054;-64
2023/10/15 12:46:29;;;;;;;2.45;0.70;;;10.90;99.90;;;;;;4969925;28;20058;-64
2023/10/15 12:48:56;;;;;;;3.42;1.27;;;10.90;99.90;;;;;;4994634;28;20387;-64
2023/10/15 12:51:23;;;;;;;4.28;1.00;;;10.90;99.90;;;;;;4978596;28;20065;-65
2023/10/15 12:53:50;;;;;;;4.78;1.48;;;10.90;99.90;;;;;;4979110;28;20112;-64
2023/10/15 12:56:16;;;;;;;5.78;1.25;;;11.00;99.90;;;;;;4996001;28;20081;-64
2023/10/15 12:58:42;;;;;;;5.03;1.20;;;11.00;99.90;;;;;;4959147;28;20375;-64
2023/10/15 13:01:08;;;;;;;2.88;1.20;;;11.10;99.90;;;;;;4972001;28;20051;-64
2023/10/15 13:03:35;;;;;;;3.92;1.23;;;11.10;99.90;;;;;;4955442;29;20059;-63
2023/10/15 13:06:01;;;;;;;5.13;1.20;;;11.20;99.90;;;;;;4943928;28;20070;-63
2023/10/15 13:08:27;;;;;;;4.88;1.80;;;11.30;99.90;;;;;;4995516;28;20050;-63
2023/10/15 13:10:53;;;;;;;6.00;1.30;;;11.50;99.90;;;;;;4974616;28;20110;-63
2023/10/15 13:13:20;;;;;;;4.85;1.30;;;11.60;99.90;;;;;;4961690;28;20054;-63
2023/10/15 13:15:47;;;;;;;5.18;1.58;;;11.70;99.90;;;;;;4940621;28;20051;-63